Time;durP1;ratioP1;P1;durP2;ratioP2;P2;SDS_P1;SDS_P2;PMS_P1;PMS_P2;Temp;Humidity;BMP_temperature;BMP_pressure;BME280_temperature;BME280_humidity;BME280_pressure;Samples;Min_cycle;Max_cycle;Signal;HPM_P1;HPM_P2
2022/01/22 00:01:25;;;;;;;6.88;3.65;;;;;;;-9.60;75.59;101301.84;5038509;28;20041;-58
2022/01/22 00:03:58;;;;;;;9.38;4.80;;;;;;;-9.32;75.58;101320.88;5048900;28;20076;-58
2022/01/22 00:06:29;;;;;;;7.32;4.47;;;;;;;-9.26;75.46;101312.16;5048960;28;20049;-57
2022/01/22 00:09:05;;;;;;;7.80;3.95;;;;;;;-9.11;75.99;101309.91;5049136;28;20096;-57
2022/01/22 00:11:39;;;;;;;5.28;3.20;;;;;;;-8.92;75.71;101307.19;5048401;28;20104;-58
2022/01/22 00:14:25;;;;;;;4.38;2.70;;;;;;;-8.69;75.59;101316.56;5047667;28;20121;-57
2022/01/22 00:16:57;;;;;;;4.05;2.50;;;;;;;-8.56;75.08;101319.31;5037789;28;20055;-57
2022/01/22 00:19:30;;;;;;;2.90;2.42;;;;;;;-8.40;75.24;101306.13;5037917;28;20053;-58
2022/01/22 00:22:01;;;;;;;3.50;2.50;;;;;;;-8.14;74.52;101319.84;5046675;28;20296;-58
2022/01/22 00:24:37;;;;;;;3.78;2.65;;;;;;;-8.00;74.30;101309.09;5048119;28;20227;-58
2022/01/22 00:27:08;;;;;;;3.83;2.10;;;;;;;-7.91;73.79;101304.72;5039212;28;20199;-58
2022/01/22 00:29:39;;;;;;;3.58;2.20;;;;;;;-7.76;73.20;101324.38;5046939;28;20053;-58
2022/01/22 00:32:10;;;;;;;5.95;2.15;;;;;;;-7.66;73.31;101321.72;5047442;28;20064;-59
2022/01/22 00:34:42;;;;;;;4.22;2.33;;;;;;;-7.56;73.50;101319.13;5046830;28;20053;-58
2022/01/22 00:37:14;;;;;;;2.75;2.30;;;;;;;-7.33;73.63;101336.00;5047806;28;20332;-59
2022/01/22 00:39:44;;;;;;;3.90;2.42;;;;;;;-7.28;73.32;101321.13;5046598;28;20120;-58
2022/01/22 00:42:16;;;;;;;2.15;1.95;;;;;;;-7.13;73.18;101332.38;5047476;28;20078;-58
2022/01/22 00:44:49;;;;;;;3.70;2.40;;;;;;;-7.02;73.35;101341.63;5046556;28;20091;-59
2022/01/22 00:47:20;;;;;;;5.13;1.92;;;;;;;-6.97;73.23;101332.66;5046407;28;20064;-59
2022/01/22 00:49:53;;;;;;;3.42;2.20;;;;;;;-6.77;73.16;101343.38;5037275;28;20054;-59
2022/01/22 00:52:24;;;;;;;3.15;2.00;;;;;;;-6.69;72.82;101337.16;5048199;28;20175;-59
2022/01/22 00:54:54;;;;;;;6.30;2.88;;;;;;;-6.70;72.53;101335.41;5047922;28;20053;-58
2022/01/22 00:57:25;;;;;;;6.22;2.85;;;;;;;-6.56;72.35;101334.72;5046374;28;20053;-58
2022/01/22 00:59:57;;;;;;;2.97;2.00;;;;;;;-6.41;71.76;101331.47;5047477;28;20036;-58
2022/01/22 01:02:28;;;;;;;5.07;2.28;;;;;;;-6.37;71.55;101315.63;5041141;28;20052;-58
2022/01/22 01:05:00;;;;;;;3.53;2.00;;;;;;;-6.19;70.92;101327.06;5046530;28;20449;-58
2022/01/22 01:07:31;;;;;;;4.70;1.80;;;;;;;-6.10;70.13;101326.78;5041371;28;20076;-58
2022/01/22 01:10:03;;;;;;;2.80;1.70;;;;;;;-6.02;69.63;101309.47;5045795;28;20543;-59
2022/01/22 01:12:35;;;;;;;2.85;2.30;;;;;;;-6.12;69.49;101313.94;5047143;28;20399;-58
2022/01/22 01:15:18;;;;;;;2.92;1.70;;;;;;;-6.17;69.84;101325.47;5048008;28;20041;-58
2022/01/22 01:23:23;;;;;;;4.40;1.50;;;;;;;-6.47;70.17;101288.69;5037885;28;20120;-58
2022/01/22 01:32:16;;;;;;;3.70;2.53;;;;;;;-6.97;72.13;101311.47;5039118;28;20079;-59
2022/01/22 01:34:50;;;;;;;4.28;2.70;;;;;;;-6.78;72.02;101311.13;5045717;28;20053;-59
2022/01/22 01:37:22;;;;;;;5.72;2.58;;;;;;;-6.52;70.91;101318.88;5045930;28;20087;-58
2022/01/22 01:39:59;;;;;;;4.28;2.40;;;;;;;-6.36;69.84;101312.31;5055588;28;20052;-58
2022/01/22 01:42:39;;;;;;;4.75;1.92;;;;;;;-6.32;69.57;101304.09;5057533;28;20044;-59
2022/01/22 01:45:11;;;;;;;6.72;2.20;;;;;;;-6.30;69.67;101292.38;5057655;28;20060;-59
2022/01/22 01:47:44;;;;;;;3.58;2.10;;;;;;;-6.28;69.01;101306.06;5058045;28;20056;-58
2022/01/22 01:50:15;;;;;;;5.47;2.30;;;;;;;-6.27;68.97;101302.75;5057283;28;20063;-59
2022/01/22 01:52:53;;;;;;;6.05;2.75;;;;;;;-6.20;68.87;101293.88;5057556;28;20072;-58
2022/01/22 01:55:34;;;;;;;5.50;2.65;;;;;;;-6.15;68.72;101303.56;5055140;28;20060;-58
2022/01/22 01:58:05;;;;;;;7.15;2.80;;;;;;;-6.12;68.93;101293.59;5057207;28;20053;-58
2022/01/22 02:00:36;;;;;;;4.55;2.20;;;;;;;-5.98;67.69;101293.66;5037012;28;20062;-58
2022/01/22 02:03:08;;;;;;;5.10;2.63;;;;;;;-5.96;67.52;101289.56;5040072;28;20096;-58
2022/01/22 02:05:39;;;;;;;4.45;2.35;;;;;;;-5.96;67.36;101289.56;5041948;28;20057;-59
2022/01/22 02:08:12;;;;;;;4.70;2.72;;;;;;;-5.94;67.34;101293.06;5037642;28;20336;-58
2022/01/22 02:10:47;;;;;;;3.50;2.50;;;;;;;-5.91;67.29;101286.50;5037645;28;20285;-59
2022/01/22 02:24:25;;;;;;;27.13;3.50;;;;;;;-5.74;65.51;101290.16;5057072;28;20057;-58
2022/01/22 02:26:56;;;;;;;5.90;3.15;;;;;;;-5.73;65.64;101279.16;5057175;28;20314;-57
2022/01/22 02:29:27;;;;;;;3.83;2.30;;;;;;;-5.58;66.07;101278.41;5056996;28;20053;-58
2022/01/22 02:32:15;;;;;;;4.25;2.40;;;;;;;-5.49;65.28;101284.06;5056807;28;20586;-58
2022/01/22 02:34:53;;;;;;;4.25;2.45;;;;;;;-5.42;65.04;101265.84;5050484;28;20057;-60
2022/01/22 02:37:32;;;;;;;3.85;2.30;;;;;;;-6.24;63.99;101165.63;5042917;28;20294;-59
2022/01/22 02:40:08;;;;;;;7.88;3.28;;;;;;;-5.65;63.90;101262.72;5041269;28;20047;-58
2022/01/22 02:42:39;;;;;;;4.25;2.63;;;;;;;-5.51;64.25;101265.28;5061684;28;20062;-58
2022/01/22 02:45:12;;;;;;;4.93;2.80;;;;;;;-5.52;64.91;101264.38;5080146;28;20104;-58
2022/01/22 02:47:42;;;;;;;6.30;2.35;;;;;;;-5.65;64.50;101260.19;5063277;28;20309;-59
2022/01/22 02:50:14;;;;;;;5.65;2.30;;;;;;;-5.66;64.47;101266.06;5060889;28;20337;-58
2022/01/22 02:52:46;;;;;;;3.30;1.90;;;;;;;-5.47;64.09;101264.69;5060594;28;20112;-59
2022/01/22 02:55:18;;;;;;;4.97;2.80;;;;;;;-5.59;62.89;101238.44;5060543;28;20088;-58
2022/01/22 02:57:49;;;;;;;5.40;2.63;;;;;;;-5.50;62.14;101236.47;5060565;28;20063;-58
2022/01/22 03:00:22;;;;;;;3.55;1.95;;;;;;;-5.49;61.71;101235.69;5059709;28;20323;-58
2022/01/22 03:02:53;;;;;;;3.42;1.70;;;;;;;-5.48;62.07;101247.66;5062833;28;20057;-57
2022/01/22 03:05:24;;;;;;;4.57;1.92;;;;;;;-5.47;62.37;101249.41;5060269;28;20063;-57
2022/01/22 03:07:58;;;;;;;2.33;1.80;;;;;;;-5.50;62.25;101239.03;5062552;28;20403;-57
2022/01/22 03:10:29;;;;;;;4.45;2.00;;;;;;;-5.48;61.62;101229.84;5066950;28;20059;-57
2022/01/22 03:21:35;;;;;;;2.33;1.80;;;;;;;-5.24;58.24;101236.47;5066146;28;20338;-58
2022/01/22 03:29:57;;;;;;;2.75;1.98;;;;;;;-4.69;57.93;101227.88;4990788;28;20062;-58
2022/01/22 03:32:34;;;;;;;2.00;1.63;;;;;;;-4.69;57.45;101194.72;4994716;28;20070;-58
2022/01/22 03:35:11;;;;;;;2.17;1.40;;;;;;;-4.36;56.05;101229.91;5031172;28;20065;-58
2022/01/22 03:37:43;;;;;;;2.00;1.70;;;;;;;-4.17;56.06;101238.63;5059796;28;20299;-58
2022/01/22 03:40:16;;;;;;;2.63;1.55;;;;;;;-4.14;56.34;101218.41;5059776;28;20079;-59
2022/01/22 03:42:47;;;;;;;1.98;1.40;;;;;;;-4.27;56.09;101228.69;5059914;28;20095;-58
2022/01/22 03:45:18;;;;;;;1.88;1.52;;;;;;;-4.41;56.30;101228.75;5062179;28;20123;-58
2022/01/22 03:47:49;;;;;;;3.38;1.63;;;;;;;-4.46;56.86;101231.84;5061135;28;20044;-58
2022/01/22 03:50:21;;;;;;;4.25;1.67;;;;;;;-4.31;56.78;101224.22;5065222;28;20053;-57
2022/01/22 03:52:51;;;;;;;2.63;1.70;;;;;;;-4.15;56.18;101214.97;5070936;28;20056;-57
2022/01/22 03:55:34;;;;;;;2.58;1.70;;;;;;;-3.92;56.05;101229.06;5063899;28;20063;-57
2022/01/22 03:58:05;;;;;;;4.85;1.88;;;;;;;-3.71;56.54;101223.41;5059468;28;20083;-58
2022/01/22 04:00:36;;;;;;;3.13;1.67;;;;;;;-3.78;56.54;101226.41;5059165;28;20045;-58
2022/01/22 04:03:27;;;;;;;2.08;1.50;;;;;;;-3.80;56.46;101222.88;5059011;28;20335;-58
2022/01/22 04:06:28;;;;;;;3.30;2.00;;;;;;;-4.18;56.63;101162.88;5059076;28;20371;-58
2022/01/22 04:08:59;;;;;;;2.55;1.50;;;;;;;-3.93;57.63;101217.06;5059282;28;20065;-59
2022/01/22 04:11:36;;;;;;;3.75;1.70;;;;;;;-3.90;58.54;101222.34;5059318;28;20104;-59
2022/01/22 04:14:14;;;;;;;4.60;1.90;;;;;;;-3.82;58.29;101211.69;5064150;28;20040;-60
2022/01/22 04:16:57;;;;;;;2.92;1.63;;;;;;;-3.79;58.41;101211.91;5063160;28;20067;-60
2022/01/22 04:25:07;;;;;;;2.15;1.67;;;;;;;-3.79;58.38;101204.25;5069921;28;20049;-58
2022/01/22 04:27:41;;;;;;;4.35;1.90;;;;;;;-3.90;58.70;101176.41;5075255;28;20053;-59
2022/01/22 04:30:12;;;;;;;2.28;1.70;;;;;;;-3.70;58.44;101212.41;5059101;28;20049;-59
2022/01/22 04:32:43;;;;;;;2.22;1.77;;;;;;;-3.66;58.43;101216.91;5065881;28;20091;-58
2022/01/22 04:35:14;;;;;;;5.30;2.17;;;;;;;-3.69;58.59;101221.84;5064622;28;20056;-58
2022/01/22 04:37:45;;;;;;;4.97;2.00;;;;;;;-3.76;57.85;101214.63;5057431;28;20155;-59
2022/01/22 04:40:16;;;;;;;5.63;2.28;;;;;;;-3.64;57.86;101215.31;5058401;28;20057;-58
2022/01/22 04:42:48;;;;;;;3.05;1.50;;;;;;;-3.61;57.20;101219.72;5061083;28;20097;-58
2022/01/22 04:45:27;;;;;;;2.35;1.48;;;;;;;-3.73;57.00;101225.00;5072102;28;20060;-59
2022/01/22 04:48:12;;;;;;;4.07;2.15;;;;;;;-3.76;57.70;101224.84;5058623;28;20056;-59
2022/01/22 04:56:17;;;;;;;3.00;1.55;;;;;;;-3.87;56.97;101220.78;5057651;28;20045;-58
2022/01/22 04:58:49;;;;;;;2.30;1.60;;;;;;;-3.80;56.87;101228.88;5058030;28;20049;-59
2022/01/22 05:01:20;;;;;;;1.70;1.40;;;;;;;-3.72;56.51;101206.31;5058430;28;20088;-59
2022/01/22 05:03:51;;;;;;;2.70;1.70;;;;;;;-3.55;55.91;101228.56;5058795;28;20391;-58
2022/01/22 05:06:22;;;;;;;2.13;1.60;;;;;;;-3.54;55.94;101212.47;5057362;28;20045;-58
2022/01/22 05:08:55;;;;;;;4.28;1.50;;;;;;;-3.49;56.03;101221.28;5057543;28;20057;-59
2022/01/22 05:11:27;;;;;;;1.40;1.30;;;;;;;-3.48;56.07;101223.00;5069985;28;20528;-58
2022/01/22 05:13:59;;;;;;;2.75;1.67;;;;;;;-3.51;55.98;101222.84;5067617;28;20052;-58
2022/01/22 05:16:30;;;;;;;1.65;1.55;;;;;;;-3.68;55.36;101223.59;5059588;28;20345;-59
2022/01/22 05:19:07;;;;;;;2.63;1.92;;;;;;;-3.84;55.86;101220.94;5063190;28;20060;-58
2022/01/22 05:21:39;;;;;;;2.25;1.50;;;;;;;-4.09;55.84;101219.56;5059631;28;20053;-58
2022/01/22 05:24:14;;;;;;;17.33;6.78;;;;;;;-4.60;56.11;101165.56;5065959;28;20080;-57
2022/01/22 05:27:15;;;;;;;4.68;2.70;;;;;;;-4.46;56.28;101225.06;5057424;28;20112;-58
2022/01/22 05:30:07;;;;;;;;;;;;;;;-4.51;57.12;101223.91;5062534;28;20270;-58
2022/01/22 05:32:54;;;;;;;5.90;1.60;;;;;;;-4.50;57.36;101209.47;5065322;28;20126;-59
2022/01/22 05:38:14;;;;;;;2.83;1.67;;;;;;;-4.99;58.00;101177.69;5063883;28;20048;-58
2022/01/22 05:40:46;;;;;;;5.07;2.40;;;;;;;-5.01;58.19;101208.97;5056783;28;20055;-59
2022/01/22 05:43:17;;;;;;;1.50;1.40;;;;;;;-5.21;58.91;101217.94;5087548;22;20044;-77
2022/01/22 05:45:49;;;;;;;4.93;1.67;;;;;;;-5.27;59.28;101210.78;5066119;28;20236;-76
2022/01/22 05:48:20;;;;;;;4.32;1.60;;;;;;;-5.33;59.45;101192.56;5072575;28;20112;-76
2022/01/22 05:50:55;;;;;;;3.75;2.00;;;;;;;-5.62;59.45;101134.72;5071594;28;20067;-78
2022/01/22 05:53:49;;;;;;;3.72;2.30;;;;;;;-5.20;59.50;101192.53;5067840;28;20056;-78
2022/01/22 06:01:57;;;;;;;3.28;2.10;;;;;;;-5.14;59.69;101207.34;5083324;28;20052;-75
2022/01/22 06:04:28;;;;;;;4.15;1.98;;;;;;;-5.07;59.64;101219.66;5088741;28;20039;-76
2022/01/22 06:06:59;;;;;;;3.03;2.05;;;;;;;-5.03;59.56;101231.81;5082126;28;20037;-75
2022/01/22 06:09:31;;;;;;;3.85;2.30;;;;;;;-5.04;59.38;101213.88;5086802;28;20062;-77
2022/01/22 06:12:15;;;;;;;3.17;1.80;;;;;;;-4.94;59.58;101230.59;5065550;28;20108;-76
2022/01/22 06:14:46;;;;;;;1.70;1.60;;;;;;;-5.91;58.81;101099.84;5046556;28;20044;-77
2022/01/22 06:17:19;;;;;;;3.60;1.77;;;;;;;-5.27;58.79;101215.88;5068535;28;20052;-77
2022/01/22 06:19:50;;;;;;;4.10;2.13;;;;;;;-5.89;58.93;101139.88;5080316;28;20087;-77
2022/01/22 06:22:21;;;;;;;3.05;1.60;;;;;;;-5.63;59.40;101174.59;5049154;28;20086;-76
2022/01/22 06:24:52;;;;;;;4.63;1.70;;;;;;;-5.99;59.56;101134.09;5082965;28;20053;-78
2022/01/22 06:27:23;;;;;;;2.47;1.52;;;;;;;-6.18;59.67;101132.94;5076763;28;20316;-78
2022/01/22 06:29:54;;;;;;;4.32;2.17;;;;;;;-5.47;60.27;101226.47;5074235;28;20052;-78
2022/01/22 06:32:27;;;;;;;5.55;2.70;;;;;;;-5.43;60.81;101231.00;5076593;28;20116;-78
2022/01/22 06:34:58;;;;;;;3.72;2.83;;;;;;;-5.43;60.43;101223.34;5074849;28;20354;-77
2022/01/22 06:37:28;;;;;;;6.82;2.95;;;;;;;-6.08;60.56;101117.47;5073798;28;20103;-78
2022/01/22 06:42:47;;;;;;;5.72;3.00;;;;;;;-5.45;60.42;101219.81;5075738;28;20070;-78
2022/01/22 06:45:18;;;;;;;7.07;3.22;;;;;;;-5.56;60.52;101231.88;5074521;28;20057;-78
2022/01/22 06:47:51;;;;;;;9.55;4.55;;;;;;;-5.67;61.15;101203.19;5073245;28;20103;-78
2022/01/22 06:50:21;;;;;;;9.45;4.97;;;;;;;-5.68;61.33;101224.34;5071538;28;20116;-78
2022/01/22 06:52:56;;;;;;;7.32;4.07;;;;;;;-5.52;61.58;101232.94;5064491;28;20309;-78
2022/01/22 06:55:37;;;;;;;12.18;5.75;;;;;;;-5.89;61.27;101184.75;5064500;28;20104;-78
2022/01/22 06:58:08;;;;;;;15.05;5.47;;;;;;;-5.79;61.32;101212.59;5064457;28;20109;-77
2022/01/22 07:00:38;;;;;;;11.63;4.55;;;;;;;-6.56;61.62;101080.47;5064451;28;20442;-77
2022/01/22 07:03:11;;;;;;;6.70;2.92;;;;;;;-5.78;61.76;101239.81;5077026;28;20063;-75
2022/01/22 07:05:42;;;;;;;6.35;2.50;;;;;;;-5.84;62.30;101244.53;5084499;28;20051;-78
2022/01/22 07:08:13;;;;;;;8.25;2.67;;;;;;;-6.17;62.13;101197.41;5084439;28;20348;-78
2022/01/22 07:10:44;;;;;;;5.85;2.55;;;;;;;-5.86;62.83;101246.06;5084426;28;20348;-78
2022/01/22 07:13:15;;;;;;;4.72;3.25;;;;;;;-5.86;62.70;101251.16;5084308;28;20066;-78
2022/01/22 07:15:46;;;;;;;12.80;4.97;;;;;;;-6.01;62.58;101232.38;5084527;28;20111;-78
2022/01/22 07:18:21;;;;;;;11.32;4.45;;;;;;;-5.95;62.77;101245.50;5079879;28;20080;-78
2022/01/22 07:20:55;;;;;;;7.95;3.70;;;;;;;-5.97;62.87;101247.06;5084374;28;20044;-78
2022/01/22 07:23:55;;;;;;;7.22;3.30;;;;;;;-6.15;63.40;101237.44;5080319;28;20044;-79
2022/01/22 07:26:25;;;;;;;5.22;2.42;;;;;;;-6.23;64.04;101222.44;5063907;28;20053;-82
2022/01/22 07:28:56;;;;;;;5.93;2.30;;;;;;;-6.16;64.31;101248.41;5063644;28;20067;-79
2022/01/22 07:31:27;;;;;;;4.38;2.30;;;;;;;-6.18;64.39;101252.50;5063843;28;20056;-80
2022/01/22 07:34:00;;;;;;;9.02;3.53;;;;;;;-6.29;64.95;101233.06;5063765;28;20399;-78
2022/01/22 07:36:31;;;;;;;7.63;3.47;;;;;;;-6.27;64.97;101256.97;5063677;28;20059;-79
2022/01/22 07:39:01;;;;;;;16.02;6.13;;;;;;;-6.49;64.92;101243.56;5063706;28;20045;-79
2022/01/22 07:41:34;;;;;;;8.38;3.83;;;;;;;-6.66;64.92;101245.88;5063738;28;20396;-79
2022/01/22 07:44:06;;;;;;;11.68;4.40;;;;;;;-6.73;65.65;101248.78;5063933;28;20045;-78
2022/01/22 07:46:36;;;;;;;16.95;6.63;;;;;;;-6.65;65.77;101277.25;5063767;28;20044;-79
2022/01/22 07:49:10;;;;;;;32.17;13.32;;;;;;;-6.96;66.14;101222.66;5063843;28;20045;-79
2022/01/22 07:51:41;;;;;;;20.33;10.50;;;;;;;-7.65;66.24;101135.72;5063711;28;20077;-79
2022/01/22 07:54:11;;;;;;;13.98;7.15;;;;;;;-7.05;66.49;101216.94;5063701;28;20091;-78
2022/01/22 07:56:42;;;;;;;5.75;3.17;;;;;;;-7.08;66.71;101234.50;5063828;28;20401;-78
2022/01/22 07:59:13;;;;;;;5.43;2.60;;;;;;;-7.00;67.26;101262.97;5063700;28;20053;-79
2022/01/22 08:01:44;;;;;;;5.75;2.42;;;;;;;-7.15;66.95;101252.63;5063601;28;20136;-77
2022/01/22 08:04:23;;;;;;;7.22;2.70;;;;;;;-7.16;67.50;101244.13;5065495;28;20053;-79
2022/01/22 08:06:54;;;;;;;6.30;2.88;;;;;;;-7.54;68.14;101200.78;5079442;28;20063;-79
2022/01/22 08:09:26;;;;;;;6.50;3.53;;;;;;;-7.16;67.92;101250.88;5082851;28;20056;-79
2022/01/22 08:11:57;;;;;;;7.82;2.70;;;;;;;-7.22;68.15;101240.28;5070799;28;20119;-78
2022/01/22 08:14:28;;;;;;;5.43;2.80;;;;;;;-6.97;68.02;101278.44;5063303;28;20052;-77
2022/01/22 08:16:58;;;;;;;5.30;3.20;;;;;;;-7.03;67.86;101294.13;5063188;28;20108;-78
2022/01/22 08:19:31;;;;;;;10.35;4.30;;;;;;;-7.91;67.78;101144.91;5066635;28;20087;-78
2022/01/22 08:22:02;;;;;;;6.47;3.70;;;;;;;-7.31;67.49;101257.38;5071293;28;20048;-78
2022/01/22 08:24:32;;;;;;;8.27;4.18;;;;;;;-7.29;67.51;101264.34;5071658;28;20048;-77
2022/01/22 08:27:12;;;;;;;9.70;4.53;;;;;;;-7.13;67.21;101291.72;5071034;28;20124;-77
2022/01/22 08:29:44;;;;;;;14.95;5.95;;;;;;;-7.37;67.20;101261.25;5062979;28;20356;-78
2022/01/22 08:32:33;;;;;;;16.40;8.57;;;;;;;-7.32;66.89;101279.38;5062848;28;20117;-78
2022/01/22 08:37:54;;;;;;;5.80;2.70;;;;;;;-7.38;66.86;101310.28;5062866;28;20051;-77
2022/01/22 08:40:24;;;;;;;7.45;2.63;;;;;;;-7.32;66.95;101308.97;5070078;28;20350;-78
2022/01/22 08:42:55;;;;;;;7.70;3.60;;;;;;;-8.45;66.77;101135.09;5067177;28;20112;-78
2022/01/22 08:45:26;;;;;;;10.77;6.25;;;;;;;-7.49;67.09;101290.84;5069746;28;20048;-78
2022/01/22 08:47:57;;;;;;;9.15;4.00;;;;;;;-7.46;67.17;101285.09;5074275;28;20124;-78
2022/01/22 08:50:30;;;;;;;7.80;3.17;;;;;;;-7.59;66.98;101260.50;5057524;28;20091;-78
2022/01/22 08:53:01;;;;;;;6.53;3.53;;;;;;;-7.33;67.39;101297.94;5075469;28;20057;-77
2022/01/22 08:55:32;;;;;;;8.57;3.67;;;;;;;-7.35;67.57;101293.50;5075006;28;20359;-77
2022/01/22 08:58:04;;;;;;;10.63;3.90;;;;;;;-7.55;67.38;101259.94;5069959;28;20087;-78
2022/01/22 09:00:37;;;;;;;10.93;4.53;;;;;;;-8.05;67.25;101173.47;5069151;28;20040;-78
2022/01/22 09:03:09;;;;;;;8.70;4.38;;;;;;;-7.51;67.61;101261.94;5066109;28;20045;-78
2022/01/22 09:05:47;;;;;;;8.35;4.25;;;;;;;-7.33;67.44;101312.28;5070382;28;20059;-78
2022/01/22 09:08:18;;;;;;;11.70;4.22;;;;;;;-7.39;67.56;101311.06;5069321;28;20075;-78
2022/01/22 09:10:50;;;;;;;6.78;3.88;;;;;;;-7.64;67.74;101275.41;5078589;28;20063;-77
2022/01/22 09:13:21;;;;;;;9.73;4.15;;;;;;;-7.66;67.50;101286.19;5071242;28;20045;-78
2022/01/22 09:15:55;;;;;;;8.00;3.33;;;;;;;-8.00;67.97;101242.28;5072189;28;20415;-78
2022/01/22 09:18:26;;;;;;;7.30;3.20;;;;;;;-7.94;67.74;101273.16;5071568;28;20049;-78
2022/01/22 09:21:08;;;;;;;5.78;3.63;;;;;;;-8.35;67.39;101212.66;5071477;28;20072;-76
2022/01/22 09:23:38;;;;;;;10.23;4.75;;;;;;;-8.18;67.73;101251.97;5071815;28;20048;-77
2022/01/22 09:26:09;;;;;;;22.85;7.85;;;;;;;-8.16;67.59;101260.53;5068825;28;20198;-76
2022/01/22 09:28:40;;;;;;;36.97;10.35;;;;;;;-8.00;67.67;101303.16;5069171;28;20224;-77
2022/01/22 09:31:12;;;;;;;13.90;4.75;;;;;;;-8.01;67.72;101312.44;5069078;28;20072;-77
2022/01/22 09:33:44;;;;;;;7.57;3.22;;;;;;;-8.16;67.71;101302.00;5071267;28;20317;-77
2022/01/22 09:36:17;;;;;;;5.85;2.80;;;;;;;-8.82;67.92;101208.34;5078409;28;20080;-76
2022/01/22 09:38:48;;;;;;;7.40;2.90;;;;;;;-8.12;67.58;101318.31;5076228;28;20052;-80
2022/01/22 09:41:20;;;;;;;5.40;2.53;;;;;;;-8.48;67.91;101276.81;5075133;28;20052;-78
2022/01/22 09:43:54;;;;;;;6.25;3.00;;;;;;;-8.39;67.75;101297.72;5047038;28;20125;-77
2022/01/22 09:46:28;;;;;;;13.70;4.20;;;;;;;-8.79;68.03;101233.91;5050439;28;20344;-78
2022/01/22 09:48:59;;;;;;;137.57;35.88;;;;;;;-8.55;68.09;101284.69;5052562;28;20147;-77
2022/01/22 09:51:31;;;;;;;218.20;51.92;;;;;;;-8.54;68.16;101296.59;5049587;28;20050;-78
2022/01/22 09:54:02;;;;;;;253.50;58.08;;;;;;;-8.50;68.64;101317.22;5047711;28;20049;-77
2022/01/22 09:56:33;;;;;;;236.23;53.17;;;;;;;-8.65;68.55;101299.97;5054385;28;20048;-77
2022/01/22 09:59:04;;;;;;;85.28;22.67;;;;;;;-8.83;68.70;101277.53;5049898;28;20056;-77
2022/01/22 10:01:36;;;;;;;90.40;22.88;;;;;;;-9.35;69.07;101202.56;5050053;28;20041;-77
2022/01/22 10:04:09;;;;;;;31.17;7.93;;;;;;;-8.66;69.57;101326.06;5048844;28;20367;-77
2022/01/22 10:06:53;;;;;;;12.02;5.20;;;;;;;-8.76;69.62;101324.44;5051891;28;20138;-76
2022/01/22 10:09:33;;;;;;;68.07;18.23;;;;;;;-9.34;69.89;101244.81;5047182;28;20045;-77
2022/01/22 10:12:11;;;;;;;204.77;56.67;;;;;;;-9.10;70.38;101321.81;5044126;28;20104;-77
2022/01/22 10:15:20;;;;;;;61.13;18.73;;;;;;;-9.22;70.74;101326.78;5050744;28;20048;-77
2022/01/22 10:17:52;;;;;;;361.90;109.20;;;;;;;-9.37;71.00;101326.44;5041301;28;20048;-77
2022/01/22 10:20:31;;;;;;;251.15;81.43;;;;;;;-9.65;70.97;101318.28;5055458;28;20099;-77
2022/01/22 10:23:08;;;;;;;137.45;47.83;;;;;;;-9.91;71.06;101302.63;5052901;28;20060;-77
2022/01/22 10:25:42;;;;;;;129.18;42.88;;;;;;;-9.82;71.32;101331.22;5057612;28;20079;-77
2022/01/22 10:28:18;;;;;;;45.47;18.58;;;;;;;-10.13;71.57;101311.00;5053414;28;20042;-77
2022/01/22 10:30:52;;;;;;;25.25;11.50;;;;;;;-10.16;71.45;101320.84;5051137;28;20100;-78
2022/01/22 10:33:29;;;;;;;16.80;8.40;;;;;;;-10.22;72.08;101330.44;5050246;28;20045;-78
2022/01/22 10:36:12;;;;;;;13.98;7.80;;;;;;;-10.94;72.48;101239.44;5055078;28;20377;-78
2022/01/22 10:38:46;;;;;;;20.38;12.27;;;;;;;-10.69;72.30;101300.47;5054637;28;20087;-78
2022/01/22 10:41:20;;;;;;;60.05;30.70;;;;;;;-10.60;72.31;101329.78;5049960;28;20052;-78
2022/01/22 10:43:54;;;;;;;37.95;17.38;;;;;;;-10.71;72.55;101336.44;5065210;28;20214;-77
2022/01/22 10:46:43;;;;;;;40.85;18.58;;;;;;;-11.12;72.60;101263.09;5079316;28;20044;-76
2022/01/22 10:49:16;;;;;;;26.65;14.20;;;;;;;-10.87;72.68;101299.78;5073751;28;20067;-78
2022/01/22 10:51:51;;;;;;;14.27;9.38;;;;;;;-10.72;72.32;101315.34;5080366;28;20370;-77
2022/01/22 10:54:25;;;;;;;7.82;4.35;;;;;;;-11.04;71.85;101284.84;5073379;28;20279;-78
2022/01/22 10:57:10;;;;;;;11.82;5.70;;;;;;;-11.14;71.73;101283.16;5077845;28;20056;-77
2022/01/22 10:59:47;;;;;;;13.32;7.00;;;;;;;-11.05;72.12;101303.28;5070382;28;20088;-77
2022/01/22 11:02:19;;;;;;;22.90;9.80;;;;;;;-11.04;72.14;101322.69;5079989;28;20048;-77
2022/01/22 11:04:50;;;;;;;25.35;10.48;;;;;;;-11.33;71.41;101290.78;5077792;28;20048;-77
2022/01/22 11:07:22;;;;;;;17.90;9.25;;;;;;;-11.48;71.45;101299.53;5078454;28;20056;-77
2022/01/22 11:10:04;;;;;;;20.77;7.90;;;;;;;-11.54;72.40;101273.78;5073945;28;20222;-78
2022/01/22 11:12:35;;;;;;;26.80;9.75;;;;;;;-11.44;72.11;101311.66;5075272;28;20102;-77
2022/01/22 11:15:07;;;;;;;21.17;9.23;;;;;;;-11.71;71.74;101310.09;5081593;28;20086;-77
2022/01/22 11:17:39;;;;;;;17.95;8.88;;;;;;;-11.88;72.31;101313.69;5082663;28;20040;-77
2022/01/22 11:20:13;;;;;;;15.05;7.93;;;;;;;-12.13;73.44;101297.09;5065425;28;20044;-77
2022/01/22 11:22:45;;;;;;;9.55;4.18;;;;;;;-12.28;74.10;101276.44;5071498;28;20055;-77
2022/01/22 11:25:18;;;;;;;11.95;5.10;;;;;;;-12.61;74.33;101250.84;5077931;28;20055;-77
2022/01/22 11:27:49;;;;;;;9.07;4.22;;;;;;;-13.12;74.69;101176.53;5087284;28;20025;-78
2022/01/22 11:30:25;;;;;;;31.15;18.02;;;;;;;-12.50;74.64;101329.00;5089842;28;20033;-77
2022/01/22 11:33:00;;;;;;;24.25;11.20;;;;;;;-12.82;74.14;101334.47;5084848;28;20063;-74
2022/01/22 11:35:41;;;;;;;10.00;5.70;;;;;;;-13.35;74.72;101280.00;5086723;28;20084;-77
2022/01/22 11:38:17;;;;;;;37.90;20.05;;;;;;;-13.52;75.11;101279.31;5088345;28;20037;-78
2022/01/22 11:41:13;;;;;;;20.60;13.18;;;;;;;-13.32;75.92;101325.59;5087866;28;20056;-77
2022/01/22 11:44:12;;;;;;;27.52;13.07;;;;;;;-14.37;76.00;101182.44;5088622;28;20182;-77
2022/01/22 11:46:46;;;;;;;12.15;6.97;;;;;;;-13.69;76.19;101319.53;5076906;28;20052;-77
2022/01/22 11:49:21;;;;;;;12.38;8.45;;;;;;;-13.65;76.34;101326.66;5083299;28;20053;-77
2022/01/22 11:51:53;;;;;;;13.30;6.68;;;;;;;-14.68;76.48;101168.53;5077988;28;20040;-78
2022/01/22 11:54:25;;;;;;;102.68;61.78;;;;;;;-13.77;77.50;101335.50;5083222;28;20063;-77
2022/01/22 11:56:58;;;;;;;27.88;21.85;;;;;;;-13.78;78.08;101333.72;5073268;28;20084;-78
2022/01/22 11:59:31;;;;;;;36.63;24.05;;;;;;;-13.92;78.39;101308.16;5063281;28;20221;-78
2022/01/22 12:02:07;;;;;;;13.13;8.35;;;;;;;-13.74;78.25;101333.28;5080467;28;20382;-78
2022/01/22 12:04:50;;;;;;;6.28;4.95;;;;;;;-13.75;78.86;101334.00;5079417;28;20063;-78
2022/01/22 12:07:23;;;;;;;8.40;4.55;;;;;;;-14.62;79.06;101178.31;5077281;28;20053;-78
2022/01/22 12:10:33;;;;;;;6.80;4.80;;;;;;;-13.69;79.46;101334.63;5071465;28;20048;-78
2022/01/22 12:16:19;;;;;;;5.10;3.10;;;;;;;-13.74;79.78;101330.78;5070775;28;20114;-78
2022/01/22 12:18:58;;;;;;;4.13;2.97;;;;;;;-14.12;80.16;101252.59;5070394;28;20060;-78
2022/01/22 12:21:37;;;;;;;3.20;2.60;;;;;;;-13.74;79.78;101315.69;5074462;28;20055;-79
2022/01/22 12:27:46;;;;;;;3.88;2.63;;;;;;;-13.75;79.95;101298.84;5049637;28;20110;-79
2022/01/22 12:30:34;;;;;;;6.63;4.40;;;;;;;-14.11;79.28;101264.41;5080062;28;20029;-79
2022/01/22 12:33:09;;;;;;;10.32;3.50;;;;;;;-13.73;78.77;101323.38;5086254;28;20068;-81
2022/01/22 12:35:41;;;;;;;6.78;5.38;;;;;;;-13.73;78.94;101342.59;5081870;28;20043;-80
2022/01/22 12:38:22;;;;;;;31.17;10.05;;;;;;;-14.50;78.84;101194.53;5096923;28;20091;-80
2022/01/22 12:40:59;;;;;;;36.17;15.20;;;;;;;-14.52;78.79;101198.50;5087337;28;20117;-83
2022/01/22 12:43:32;;;;;;;43.72;15.82;;;;;;;-14.28;78.71;101237.66;5088091;28;20040;-81
2022/01/22 12:46:06;;;;;;;8.32;3.88;;;;;;;-13.61;78.66;101301.06;5074984;28;20324;-79
2022/01/22 12:48:38;;;;;;;8.98;2.70;;;;;;;-13.45;77.34;101337.72;5080282;28;20137;-76
2022/01/22 12:51:11;;;;;;;5.32;2.33;;;;;;;-14.39;76.46;101183.91;5063389;28;20336;-77
2022/01/22 12:53:50;;;;;;;4.47;2.80;;;;;;;-14.13;75.68;101273.41;5065322;28;20052;-78
2022/01/22 12:59:11;;;;;;;10.95;5.55;;;;;;;-13.55;75.93;101321.78;5078727;28;20047;-77
2022/01/22 13:01:51;;;;;;;7.05;3.03;;;;;;;-13.93;75.66;101258.63;5071230;28;20108;-77
2022/01/22 13:04:23;;;;;;;5.90;2.88;;;;;;;-13.63;75.80;101315.09;5065974;28;20107;-76